createdAt,value
2022-07-28T00:00:18.906Z,7.10
2022-07-28T00:02:48.618Z,5.07
2022-07-28T00:05:16.953Z,7.70
2022-07-28T00:07:45.469Z,6.05
2022-07-28T00:10:14.169Z,8.85
2022-07-28T00:12:42.408Z,6.50
2022-07-28T00:15:11.955Z,5.55
2022-07-28T00:17:40.223Z,10.57
2022-07-28T00:20:11.948Z,8.05
2022-07-28T00:22:43.435Z,5.63
2022-07-28T00:25:12.079Z,5.40
2022-07-28T00:27:40.656Z,7.03
2022-07-28T00:30:10.157Z,6.30
2022-07-28T00:32:39.228Z,7.13
2022-07-28T00:35:08.843Z,6.63
2022-07-28T00:37:39.710Z,8.02
2022-07-28T00:40:09.910Z,7.28
2022-07-28T00:42:38.401Z,8.17
2022-07-28T00:45:08.227Z,6.03
2022-07-28T00:47:36.491Z,9.32
2022-07-28T00:50:05.708Z,8.18
2022-07-28T00:52:35.160Z,6.10
2022-07-28T00:55:06.904Z,6.87
2022-07-28T00:57:35.706Z,8.43
2022-07-28T01:00:05.020Z,8.10
2022-07-28T01:02:33.446Z,7.13
2022-07-28T01:05:01.819Z,7.05
2022-07-28T01:07:38.534Z,7.90
2022-07-28T01:10:14.823Z,12.73
2022-07-28T01:12:52.007Z,7.57
2022-07-28T01:15:26.599Z,6.90
2022-07-28T01:18:03.736Z,7.20
2022-07-28T01:20:36.853Z,7.70
2022-07-28T01:23:28.424Z,7.90
2022-07-28T01:26:14.275Z,6.30
2022-07-28T01:28:59.308Z,5.90
2022-07-28T01:31:33.442Z,7.35
2022-07-28T01:34:09.375Z,6.87
2022-07-28T01:36:41.792Z,8.02
2022-07-28T01:39:11.235Z,8.07
2022-07-28T01:41:41.856Z,7.18
2022-07-28T01:44:15.852Z,6.13
2022-07-28T01:46:47.571Z,7.33
2022-07-28T01:49:17.905Z,7.38
2022-07-28T01:51:47.962Z,7.60
2022-07-28T01:54:20.261Z,8.15
2022-07-28T01:56:50.523Z,7.28
2022-07-28T01:59:20.749Z,8.53
2022-07-28T02:01:52.575Z,7.03
2022-07-28T02:04:24.190Z,8.50
2022-07-28T02:06:54.328Z,6.97
2022-07-28T02:09:24.743Z,7.38
2022-07-28T02:11:55.531Z,8.97
2022-07-28T02:14:28.715Z,8.95
2022-07-28T02:17:03.464Z,6.53
2022-07-28T02:19:33.110Z,9.52
2022-07-28T02:22:03.624Z,6.40
2022-07-28T02:24:33.418Z,8.33
2022-07-28T02:27:07.056Z,7.57
2022-07-28T02:29:51.853Z,7.38
2022-07-28T02:32:33.174Z,7.93
2022-07-28T02:35:09.367Z,7.55
2022-07-28T02:37:41.112Z,7.60
2022-07-28T02:40:14.841Z,6.35
2022-07-28T02:42:45.401Z,7.88
2022-07-28T02:45:16.663Z,7.45
2022-07-28T02:47:51.268Z,8.98
2022-07-28T02:50:25.619Z,6.60
2022-07-28T02:52:56.544Z,8.63
2022-07-28T02:55:25.794Z,6.63
2022-07-28T02:57:56.979Z,9.13
2022-07-28T03:00:26.638Z,7.40
2022-07-28T03:02:57.517Z,6.73
2022-07-28T03:05:26.193Z,8.45
2022-07-28T03:07:54.835Z,5.95
2022-07-28T03:10:33.591Z,6.97
2022-07-28T03:13:03.855Z,7.65
2022-07-28T03:15:32.282Z,7.17
2022-07-28T03:18:02.128Z,8.38
2022-07-28T03:20:30.942Z,6.82
2022-07-28T03:22:59.717Z,7.80
2022-07-28T03:25:33.622Z,6.95
2022-07-28T03:28:03.491Z,7.53
2022-07-28T03:30:40.722Z,6.72
2022-07-28T03:33:10.806Z,6.07
2022-07-28T03:35:41.680Z,7.20
2022-07-28T03:38:14.642Z,7.45
2022-07-28T03:40:47.655Z,7.30
2022-07-28T03:43:17.683Z,6.47
2022-07-28T03:45:47.955Z,8.35
2022-07-28T03:48:18.057Z,8.50
2022-07-28T03:50:46.287Z,8.23
2022-07-28T03:53:21.290Z,8.97
2022-07-28T03:55:51.149Z,8.50
2022-07-28T03:58:20.140Z,6.45
2022-07-28T04:00:49.451Z,7.93
2022-07-28T04:03:35.798Z,6.57
2022-07-28T04:06:08.570Z,7.57
2022-07-28T04:08:36.800Z,6.30
2022-07-28T04:11:05.046Z,7.65
2022-07-28T04:13:33.570Z,6.93
2022-07-28T04:16:02.085Z,7.07
2022-07-28T04:18:31.779Z,6.60
2022-07-28T04:21:00.197Z,6.22
2022-07-28T04:23:28.459Z,5.82
2022-07-28T04:25:56.672Z,5.30
2022-07-28T04:28:25.404Z,7.38
2022-07-28T04:30:53.661Z,6.07
2022-07-28T04:33:22.007Z,8.48
2022-07-28T04:35:52.863Z,8.80
2022-07-28T04:38:21.178Z,7.95
2022-07-28T04:40:50.066Z,7.18
2022-07-28T04:43:18.385Z,6.60
2022-07-28T04:45:53.812Z,7.45
2022-07-28T04:48:23.439Z,6.03
2022-07-28T04:50:53.695Z,7.70
2022-07-28T04:53:22.947Z,6.97
2022-07-28T04:55:54.807Z,9.47
2022-07-28T04:58:24.036Z,7.45
2022-07-28T05:00:52.792Z,7.32
2022-07-28T05:03:21.602Z,8.10
2022-07-28T05:05:54.457Z,11.10
2022-07-28T05:08:26.571Z,8.60
2022-07-28T05:10:56.314Z,8.13
2022-07-28T05:13:26.749Z,8.85
2022-07-28T05:15:57.505Z,6.65
2022-07-28T05:18:25.726Z,8.13
2022-07-28T05:20:53.948Z,10.03
2022-07-28T05:23:22.183Z,7.10
2022-07-28T05:25:52.076Z,9.68
2022-07-28T05:28:20.967Z,7.78
2022-07-28T05:30:49.202Z,7.10
2022-07-28T05:33:17.602Z,11.53
2022-07-28T05:35:51.761Z,9.50
2022-07-28T05:38:20.042Z,12.00
2022-07-28T05:40:49.025Z,10.18
2022-07-28T05:43:18.788Z,9.70
2022-07-28T05:45:47.733Z,10.33
2022-07-28T05:48:18.936Z,11.20
2022-07-28T05:50:47.935Z,10.38
2022-07-28T05:53:16.335Z,9.50
2022-07-28T05:56:00.657Z,11.00
2022-07-28T05:58:31.709Z,9.80
2022-07-28T06:01:01.245Z,10.45
2022-07-28T06:03:30.626Z,10.48
2022-07-28T06:06:15.197Z,9.32
2022-07-28T06:08:45.772Z,10.68
2022-07-28T06:11:22.184Z,7.70
2022-07-28T06:13:52.951Z,11.35
2022-07-28T06:16:23.045Z,10.85
2022-07-28T06:18:51.899Z,12.30
2022-07-28T06:21:20.238Z,12.32
2022-07-28T06:23:48.494Z,11.50
2022-07-28T06:26:17.047Z,12.40
2022-07-28T06:28:45.388Z,11.70
2022-07-28T06:31:15.021Z,15.27
2022-07-28T06:33:43.538Z,11.73
2022-07-28T06:36:11.803Z,9.93
2022-07-28T06:38:39.984Z,11.07
2022-07-28T06:41:08.357Z,12.70
2022-07-28T06:43:39.060Z,10.95
2022-07-28T06:46:07.843Z,9.27
2022-07-28T06:48:39.490Z,13.00
2022-07-28T06:51:08.044Z,11.65
2022-07-28T06:53:36.522Z,10.30
2022-07-28T06:56:06.175Z,9.85
2022-07-28T06:58:34.562Z,10.77
2022-07-28T07:01:07.780Z,11.90
2022-07-28T07:03:37.713Z,9.10
2022-07-28T07:06:05.957Z,10.57
2022-07-28T07:08:34.306Z,8.70
2022-07-28T07:11:02.592Z,12.20
2022-07-28T07:13:30.901Z,9.60
2022-07-28T07:15:59.206Z,9.30
2022-07-28T07:18:27.789Z,10.07
2022-07-28T07:20:58.160Z,10.73
2022-07-28T07:23:26.496Z,11.00
2022-07-28T07:25:55.057Z,9.57
2022-07-28T07:28:23.295Z,12.90
2022-07-28T07:30:51.552Z,9.90
2022-07-28T07:33:19.848Z,9.40
2022-07-28T07:35:48.670Z,11.93
2022-07-28T07:38:18.277Z,9.33
2022-07-28T07:40:46.568Z,10.32
2022-07-28T07:43:14.839Z,10.73
2022-07-28T07:45:43.067Z,8.75
2022-07-28T07:48:11.319Z,9.02
2022-07-28T07:50:39.653Z,10.47
2022-07-28T07:53:07.859Z,9.07
2022-07-28T07:55:38.797Z,8.55
2022-07-28T07:58:07.549Z,9.30
2022-07-28T08:00:35.902Z,9.05
2022-07-28T08:03:04.220Z,9.47
2022-07-28T08:05:39.574Z,8.85
2022-07-28T08:08:08.199Z,9.43
2022-07-28T08:10:38.628Z,9.95
2022-07-28T08:13:07.991Z,9.77
2022-07-28T08:15:36.611Z,8.53
2022-07-28T08:18:05.173Z,9.45
2022-07-28T08:20:33.634Z,7.93
2022-07-28T08:23:01.818Z,8.05
2022-07-28T08:25:30.018Z,8.52
2022-07-28T08:27:59.704Z,7.33
2022-07-28T08:30:32.389Z,7.68
2022-07-28T08:33:03.145Z,8.70
2022-07-28T08:35:33.998Z,8.35
2022-07-28T08:38:03.205Z,8.52
2022-07-28T08:40:32.802Z,8.07
2022-07-28T08:43:05.350Z,8.10
2022-07-28T08:45:37.348Z,7.30
2022-07-28T08:48:09.618Z,6.85
2022-07-28T08:50:39.504Z,7.13
2022-07-28T08:53:08.717Z,7.33
2022-07-28T08:55:37.968Z,6.75
2022-07-28T08:58:08.585Z,8.60
2022-07-28T09:00:36.961Z,8.00
2022-07-28T09:03:06.402Z,6.38
2022-07-28T09:05:35.455Z,6.93
2022-07-28T09:08:04.345Z,6.53
2022-07-28T09:10:32.689Z,6.25
2022-07-28T09:13:01.069Z,9.30
2022-07-28T09:15:32.788Z,6.55
2022-07-28T09:18:01.821Z,6.07
2022-07-28T09:20:30.495Z,6.07
2022-07-28T09:23:01.423Z,7.38
2022-07-28T09:25:30.593Z,7.82
2022-07-28T09:28:07.567Z,6.55
2022-07-28T09:30:47.321Z,7.43
2022-07-28T09:33:43.076Z,8.43
2022-07-28T09:36:16.461Z,7.40
2022-07-28T09:38:45.065Z,6.72
2022-07-28T09:41:13.288Z,6.90
2022-07-28T09:43:43.477Z,6.37
2022-07-28T09:46:14.448Z,6.47
2022-07-28T09:48:56.565Z,6.18
2022-07-28T09:51:27.670Z,6.78
2022-07-28T09:54:08.550Z,6.10
2022-07-28T09:56:37.168Z,6.43
2022-07-28T09:59:05.656Z,6.60
2022-07-28T10:01:52.103Z,6.07
2022-07-28T10:04:31.819Z,6.10
2022-07-28T10:07:05.586Z,5.80
2022-07-28T10:09:34.495Z,7.20
2022-07-28T10:12:20.155Z,6.47
2022-07-28T10:14:49.073Z,7.63
2022-07-28T10:17:30.406Z,5.93
2022-07-28T10:20:00.404Z,4.82
2022-07-28T10:22:33.122Z,6.57
2022-07-28T10:25:03.479Z,7.40
2022-07-28T10:27:32.707Z,5.95
2022-07-28T10:30:02.924Z,5.53
2022-07-28T10:32:46.763Z,6.20
2022-07-28T10:35:16.868Z,5.83
2022-07-28T10:37:50.482Z,5.70
2022-07-28T10:40:22.098Z,6.10
2022-07-28T10:42:50.462Z,5.45
2022-07-28T10:45:18.843Z,7.05
2022-07-28T10:47:49.350Z,7.20
2022-07-28T10:50:18.144Z,6.20
2022-07-28T10:52:50.005Z,6.25
2022-07-28T10:55:31.643Z,5.88
2022-07-28T10:58:11.183Z,6.20
2022-07-28T11:00:56.084Z,8.03
2022-07-28T11:03:40.969Z,6.25
2022-07-28T11:06:29.997Z,11.40
2022-07-28T11:08:59.707Z,5.85
2022-07-28T11:11:47.937Z,8.45
2022-07-28T11:14:37.744Z,7.07
2022-07-28T11:17:24.460Z,6.50
2022-07-28T11:22:52.276Z,5.80
2022-07-28T11:25:22.751Z,5.47
2022-07-28T11:28:06.505Z,6.30
2022-07-28T11:30:55.598Z,5.93
2022-07-28T11:33:25.155Z,5.65
2022-07-28T11:36:05.722Z,5.10
2022-07-28T11:38:33.991Z,5.97
2022-07-28T11:41:02.186Z,6.07
2022-07-28T11:43:41.099Z,6.18
2022-07-28T11:46:38.615Z,6.72
2022-07-28T11:49:31.107Z,6.28
2022-07-28T11:52:23.418Z,5.30
2022-07-28T11:54:57.672Z,6.37
2022-07-28T11:57:29.573Z,6.40
2022-07-28T12:00:01.305Z,6.38
2022-07-28T12:02:32.120Z,6.18
2022-07-28T12:05:12.991Z,4.97
2022-07-28T12:07:48.599Z,6.90
2022-07-28T12:13:27.055Z,5.82
2022-07-28T12:15:55.343Z,5.05
2022-07-28T12:18:24.884Z,5.47
2022-07-28T12:20:54.796Z,5.00
2022-07-28T12:23:34.894Z,4.93
2022-07-28T12:26:07.646Z,4.90
2022-07-28T12:28:39.794Z,6.07
2022-07-28T12:31:14.956Z,5.30
2022-07-28T12:33:43.395Z,5.17
2022-07-28T12:36:11.870Z,5.65
2022-07-28T12:38:41.534Z,6.20
2022-07-28T12:41:15.875Z,5.82
2022-07-28T12:43:51.335Z,5.95
2022-07-28T12:46:25.148Z,4.87
2022-07-28T12:48:57.975Z,7.22
2022-07-28T12:51:37.079Z,4.85
2022-07-28T12:54:08.099Z,6.15
2022-07-28T12:56:46.489Z,4.70
2022-07-28T12:59:15.059Z,5.67
2022-07-28T13:01:51.524Z,5.97
2022-07-28T13:04:40.609Z,4.95
2022-07-28T13:07:13.026Z,5.40
2022-07-28T13:09:53.187Z,5.15
2022-07-28T13:12:30.838Z,4.90
2022-07-28T13:15:01.488Z,5.97
2022-07-28T13:17:49.008Z,6.18
2022-07-28T13:20:18.832Z,5.78
2022-07-28T13:22:47.242Z,4.30
2022-07-28T13:25:17.051Z,7.03
2022-07-28T13:27:45.295Z,5.20
2022-07-28T13:30:14.267Z,5.07
2022-07-28T13:32:42.532Z,4.38
2022-07-28T13:35:14.997Z,5.07
2022-07-28T13:37:43.941Z,5.83
2022-07-28T13:40:13.052Z,4.85
2022-07-28T13:42:52.920Z,5.88
2022-07-28T13:45:25.215Z,5.75
2022-07-28T13:47:58.313Z,5.80
2022-07-28T13:50:27.292Z,4.50
2022-07-28T13:52:55.508Z,4.78
2022-07-28T13:55:24.018Z,4.72
2022-07-28T13:57:56.799Z,4.90
2022-07-28T14:00:25.651Z,5.93
2022-07-28T14:02:54.007Z,5.93
2022-07-28T14:05:22.283Z,4.65
2022-07-28T14:07:51.115Z,4.82
2022-07-28T14:10:19.522Z,4.68
2022-07-28T14:12:47.748Z,4.55
2022-07-28T14:15:17.733Z,5.50
2022-07-28T14:17:46.580Z,5.95
2022-07-28T14:20:15.944Z,5.95
2022-07-28T14:22:46.566Z,5.82
2022-07-28T14:25:20.522Z,6.47
2022-07-28T14:27:50.786Z,5.00
2022-07-28T14:30:21.295Z,5.75
2022-07-28T14:32:50.010Z,5.60
2022-07-28T14:35:18.265Z,5.07
2022-07-28T14:38:23.534Z,5.70
2022-07-28T14:40:39.507Z,5.00
2022-07-28T14:43:09.287Z,6.25
2022-07-28T14:45:51.243Z,5.28
2022-07-28T14:48:27.315Z,5.10
2022-07-28T14:50:57.215Z,4.97
2022-07-28T14:53:28.056Z,4.00
2022-07-28T14:55:56.853Z,5.85
2022-07-28T14:58:25.848Z,5.35
2022-07-28T15:00:55.964Z,5.03
2022-07-28T15:03:30.673Z,6.00
2022-07-28T15:06:02.838Z,7.07
2022-07-28T15:08:31.072Z,5.38
2022-07-28T15:10:59.318Z,6.80
2022-07-28T15:13:27.807Z,6.78
2022-07-28T15:16:00.244Z,6.13
2022-07-28T15:18:28.888Z,6.73
2022-07-28T15:20:57.223Z,5.07
2022-07-28T15:23:25.698Z,6.22
2022-07-28T15:25:56.105Z,6.75
2022-07-28T15:28:24.378Z,5.40
2022-07-28T15:30:53.029Z,5.10
2022-07-28T15:33:24.103Z,5.68
2022-07-28T15:35:58.114Z,5.80
2022-07-28T15:38:29.223Z,4.97
2022-07-28T15:40:59.107Z,6.60
2022-07-28T15:43:27.550Z,5.03
2022-07-28T15:45:57.415Z,4.75
2022-07-28T15:48:27.199Z,5.03
2022-07-28T15:50:55.512Z,5.43
2022-07-28T15:53:23.806Z,8.00
2022-07-28T15:55:52.137Z,7.90
2022-07-28T15:58:21.081Z,6.18
2022-07-28T16:00:49.632Z,6.72
2022-07-28T16:03:17.987Z,5.60
2022-07-28T16:05:49.928Z,7.35
2022-07-28T16:08:22.332Z,7.13
2022-07-28T16:10:52.661Z,5.57
2022-07-28T16:13:31.485Z,6.30
2022-07-28T16:16:06.988Z,5.47
2022-07-28T16:18:36.556Z,5.90
2022-07-28T16:21:07.414Z,4.87
2022-07-28T16:23:35.980Z,6.05
2022-07-28T16:26:07.964Z,5.20
2022-07-28T16:28:36.575Z,6.25
2022-07-28T16:31:04.881Z,9.43
2022-07-28T16:33:34.078Z,10.43
2022-07-28T16:36:02.655Z,7.05
2022-07-28T16:38:32.402Z,5.47
2022-07-28T16:41:00.640Z,5.65
2022-07-28T16:43:29.382Z,6.55
2022-07-28T16:45:57.910Z,4.50
2022-07-28T16:48:26.161Z,4.97
2022-07-28T16:50:54.811Z,5.85
2022-07-28T16:53:23.248Z,10.43
2022-07-28T16:55:52.873Z,5.95
2022-07-28T16:58:22.269Z,6.17
2022-07-28T17:00:51.110Z,5.22
2022-07-28T17:03:19.393Z,6.78
2022-07-28T17:05:48.602Z,8.30
2022-07-28T17:08:16.904Z,4.63
2022-07-28T17:10:45.620Z,5.53
2022-07-28T17:13:16.894Z,7.20
2022-07-28T17:15:45.355Z,7.35
2022-07-28T17:18:13.694Z,5.75
2022-07-28T17:20:46.913Z,5.30
2022-07-28T17:23:15.148Z,8.73
2022-07-28T17:25:59.557Z,6.10
2022-07-28T17:28:33.115Z,7.88
2022-07-28T17:31:01.764Z,5.20
2022-07-28T17:33:31.299Z,5.70
2022-07-28T17:35:59.731Z,5.33
2022-07-28T17:38:33.016Z,6.05
2022-07-28T17:41:04.172Z,4.65
2022-07-28T17:43:34.950Z,5.18
2022-07-28T17:46:08.252Z,6.10
2022-07-28T17:48:39.105Z,4.90
2022-07-28T17:51:07.725Z,5.60
2022-07-28T17:53:38.460Z,4.82
2022-07-28T17:56:08.852Z,5.80
2022-07-28T17:58:39.926Z,6.35
2022-07-28T18:01:12.443Z,7.43
2022-07-28T18:03:57.770Z,4.90
2022-07-28T18:06:29.795Z,5.53
2022-07-28T18:09:04.828Z,6.18
2022-07-28T18:11:56.736Z,5.50
2022-07-28T18:14:28.940Z,5.30
2022-07-28T18:16:57.359Z,6.63
2022-07-28T18:19:25.786Z,4.85
2022-07-28T18:21:54.054Z,5.07
2022-07-28T18:24:22.989Z,5.07
2022-07-28T18:26:51.830Z,5.90
2022-07-28T18:29:21.631Z,5.22
2022-07-28T18:31:52.063Z,5.43
2022-07-28T18:34:24.678Z,6.30
2022-07-28T18:36:53.446Z,6.32
2022-07-28T18:39:22.145Z,6.23
2022-07-28T18:41:50.275Z,5.15
2022-07-28T18:44:19.522Z,6.03
2022-07-28T18:46:48.432Z,4.88
2022-07-28T18:49:18.188Z,6.60
2022-07-28T18:51:46.433Z,4.63
2022-07-28T18:54:25.145Z,5.60
2022-07-28T18:56:56.400Z,6.18
2022-07-28T18:59:25.003Z,6.30
2022-07-28T19:01:53.322Z,5.53
2022-07-28T19:04:23.054Z,4.97
2022-07-28T19:06:51.764Z,6.85
2022-07-28T19:09:20.090Z,5.15
2022-07-28T19:11:48.312Z,5.07
2022-07-28T19:14:17.791Z,5.45
2022-07-28T19:16:46.282Z,5.30
2022-07-28T19:19:15.184Z,4.75
2022-07-28T19:21:44.889Z,6.13
2022-07-28T19:24:14.139Z,6.18
2022-07-28T19:26:44.302Z,5.10
2022-07-28T19:29:12.528Z,6.33
2022-07-28T19:31:41.557Z,7.00
2022-07-28T19:34:10.559Z,5.78
2022-07-28T19:36:40.429Z,5.18
2022-07-28T19:39:10.802Z,6.88
2022-07-28T19:41:39.064Z,4.97
2022-07-28T19:44:07.741Z,6.93
2022-07-28T19:46:36.151Z,5.60
2022-07-28T19:49:07.907Z,4.82
2022-07-28T19:51:36.903Z,5.82
2022-07-28T19:54:05.469Z,5.33
2022-07-28T19:56:35.295Z,5.30
2022-07-28T19:59:03.585Z,5.53
2022-07-28T20:01:32.053Z,6.38
2022-07-28T20:04:04.863Z,4.57
2022-07-28T20:06:34.504Z,4.97
2022-07-28T20:09:03.239Z,5.38
2022-07-28T20:11:32.935Z,5.45
2022-07-28T20:14:03.634Z,5.45
2022-07-28T20:16:31.974Z,5.10
2022-07-28T20:19:00.270Z,5.00
2022-07-28T20:21:28.798Z,5.20
2022-07-28T20:24:06.897Z,10.55
2022-07-28T20:26:35.551Z,6.60
2022-07-28T20:29:06.004Z,5.60
2022-07-28T20:31:34.446Z,4.70
2022-07-28T20:34:06.642Z,6.18
2022-07-28T20:36:35.561Z,6.10
2022-07-28T20:39:21.030Z,4.75
2022-07-28T20:41:52.022Z,6.47
2022-07-28T20:44:29.939Z,5.90
2022-07-28T20:47:00.802Z,5.30
2022-07-28T20:49:29.352Z,5.80
2022-07-28T20:51:57.873Z,5.30
2022-07-28T20:54:26.281Z,4.78
2022-07-28T20:56:54.654Z,4.70
2022-07-28T20:59:27.694Z,5.78
2022-07-28T21:01:56.592Z,5.88
2022-07-28T21:04:24.963Z,5.53
2022-07-28T21:07:01.571Z,5.68
2022-07-28T21:09:30.303Z,8.40
2022-07-28T21:11:58.541Z,5.15
2022-07-28T21:14:28.303Z,5.32
2022-07-28T21:16:56.693Z,6.45
2022-07-28T21:19:24.977Z,5.60
2022-07-28T21:21:53.354Z,5.10
2022-07-28T21:24:21.557Z,5.55
2022-07-28T21:26:51.648Z,5.03
2022-07-28T21:32:02.172Z,6.60
2022-07-28T21:34:34.869Z,5.03
2022-07-28T21:37:03.459Z,6.18
2022-07-28T21:39:32.018Z,5.28
2022-07-28T21:42:00.665Z,8.27
2022-07-28T21:44:28.851Z,4.53
2022-07-28T21:46:58.516Z,7.23
2022-07-28T21:49:28.721Z,5.38
2022-07-28T21:51:56.953Z,5.95
2022-07-28T21:54:25.248Z,4.68
2022-07-28T21:56:53.544Z,5.25
2022-07-28T21:59:21.741Z,6.33
2022-07-28T22:01:50.043Z,5.80
2022-07-28T22:04:20.271Z,6.18
2022-07-28T22:06:48.738Z,5.32
2022-07-28T22:09:16.995Z,5.05
2022-07-28T22:11:45.302Z,6.30
2022-07-28T22:14:14.035Z,4.80
2022-07-28T22:16:42.532Z,7.32
2022-07-28T22:19:12.548Z,7.68
2022-07-28T22:21:42.325Z,6.75
2022-07-28T22:24:10.667Z,7.23
2022-07-28T22:26:38.915Z,6.15
2022-07-28T22:29:07.125Z,6.78
2022-07-28T22:31:35.366Z,5.88
2022-07-28T22:34:03.961Z,6.60
2022-07-28T22:36:32.210Z,6.63
2022-07-28T22:39:01.875Z,6.05
2022-07-28T22:41:30.396Z,5.15
2022-07-28T22:43:58.572Z,4.57
2022-07-28T22:46:26.946Z,5.68
2022-07-28T22:48:56.560Z,4.53
2022-07-28T22:51:24.813Z,4.82
2022-07-28T22:53:53.308Z,7.20
2022-07-28T22:56:22.961Z,6.53
2022-07-28T22:58:51.348Z,5.03
2022-07-28T23:01:19.778Z,5.73
2022-07-28T23:03:48.623Z,5.43
2022-07-28T23:06:17.493Z,4.55
2022-07-28T23:08:45.692Z,4.28
2022-07-28T23:11:14.102Z,6.65
2022-07-28T23:13:43.681Z,6.53
2022-07-28T23:16:12.975Z,5.65
2022-07-28T23:18:41.347Z,7.57
2022-07-28T23:21:09.824Z,6.13
2022-07-28T23:23:38.625Z,5.63
2022-07-28T23:26:06.831Z,5.10
2022-07-28T23:28:36.284Z,5.85
2022-07-28T23:31:06.427Z,6.30
2022-07-28T23:33:55.376Z,5.35
2022-07-28T23:36:27.584Z,5.88
2022-07-28T23:38:56.689Z,6.10
2022-07-28T23:41:25.335Z,5.55
2022-07-28T23:43:53.627Z,5.80
2022-07-28T23:46:23.082Z,5.70
2022-07-28T23:48:51.839Z,6.72
2022-07-28T23:51:21.189Z,5.33
2022-07-28T23:53:54.298Z,7.93
2022-07-28T23:56:24.265Z,5.18
2022-07-28T23:58:52.251Z,5.75
